createdAt,value
2022-09-16T00:00:46.157Z,0.00
2022-09-16T00:01:46.154Z,0.00
2022-09-16T00:02:46.081Z,0.00
2022-09-16T00:03:46.052Z,0.00
2022-09-16T00:04:46.057Z,0.00
2022-09-16T00:05:46.051Z,0.00
2022-09-16T00:06:46.022Z,0.00
2022-09-16T00:07:46.022Z,0.00
2022-09-16T00:08:46.021Z,0.00
2022-09-16T00:09:46.006Z,0.00
2022-09-16T00:10:46.002Z,0.00
2022-09-16T00:11:45.993Z,0.00
2022-09-16T00:12:45.962Z,0.00
2022-09-16T00:13:45.953Z,0.00
2022-09-16T00:14:45.944Z,0.00
2022-09-16T00:15:45.965Z,0.00
2022-09-16T00:16:45.970Z,0.00
2022-09-16T00:17:45.906Z,0.00
2022-09-16T00:18:45.894Z,0.00
2022-09-16T00:19:45.884Z,0.00
2022-09-16T00:20:45.914Z,0.00
2022-09-16T00:21:45.866Z,0.00
2022-09-16T00:22:45.856Z,0.00
2022-09-16T00:23:45.855Z,0.00
2022-09-16T00:24:45.865Z,0.00
2022-09-16T00:25:45.845Z,0.00
2022-09-16T00:26:45.819Z,0.00
2022-09-16T00:27:45.806Z,0.00
2022-09-16T00:28:45.798Z,0.00
2022-09-16T00:29:45.808Z,0.00
2022-09-16T00:30:45.818Z,0.00
2022-09-16T00:31:45.821Z,0.00
2022-09-16T00:32:45.778Z,0.00
2022-09-16T00:33:45.736Z,0.00
2022-09-16T00:34:45.720Z,0.00
2022-09-16T00:35:45.817Z,0.00
2022-09-16T00:36:45.697Z,0.00
2022-09-16T00:37:45.718Z,0.00
2022-09-16T00:38:45.687Z,0.00
2022-09-16T00:39:45.678Z,0.00
2022-09-16T00:40:45.666Z,0.00
2022-09-16T00:41:45.669Z,0.00
2022-09-16T00:42:45.632Z,0.00
2022-09-16T00:43:45.641Z,0.00
2022-09-16T00:44:45.619Z,0.00
2022-09-16T00:45:45.601Z,0.00
2022-09-16T00:46:45.697Z,0.00
2022-09-16T00:47:45.592Z,0.00
2022-09-16T00:48:45.561Z,0.00
2022-09-16T00:49:45.560Z,0.00
2022-09-16T00:50:45.551Z,0.00
2022-09-16T00:51:45.553Z,0.00
2022-09-16T00:52:45.522Z,0.00
2022-09-16T00:53:45.522Z,0.00
2022-09-16T00:54:45.513Z,0.00
2022-09-16T00:55:45.500Z,0.00
2022-09-16T00:56:45.503Z,0.00
2022-09-16T00:57:45.493Z,0.00
2022-09-16T00:58:45.463Z,0.00
2022-09-16T00:59:45.455Z,0.00
2022-09-16T01:00:45.493Z,0.00
2022-09-16T01:01:45.490Z,0.00
2022-09-16T01:02:45.414Z,0.00
2022-09-16T01:03:45.407Z,0.00
2022-09-16T01:04:45.407Z,0.00
2022-09-16T01:05:45.434Z,0.00
2022-09-16T01:06:45.390Z,0.00
2022-09-16T01:07:45.365Z,0.00
2022-09-16T01:08:45.345Z,0.00
2022-09-16T01:09:45.345Z,0.00
2022-09-16T01:10:45.335Z,0.00
2022-09-16T01:11:45.357Z,0.00
2022-09-16T01:12:45.308Z,0.00
2022-09-16T01:13:45.307Z,0.00
2022-09-16T01:14:45.309Z,0.00
2022-09-16T01:15:45.286Z,0.00
2022-09-16T01:16:45.304Z,0.00
2022-09-16T01:17:45.268Z,0.00
2022-09-16T01:18:45.236Z,0.00
2022-09-16T01:19:45.238Z,0.00
2022-09-16T01:20:45.239Z,0.00
2022-09-16T01:21:45.233Z,0.00
2022-09-16T01:22:45.208Z,0.00
2022-09-16T01:23:45.211Z,0.00
2022-09-16T01:24:45.180Z,0.00
2022-09-16T01:25:45.181Z,0.00
2022-09-16T01:26:45.198Z,0.00
2022-09-16T01:27:45.157Z,0.00
2022-09-16T01:28:45.140Z,0.00
2022-09-16T01:29:45.180Z,0.00
2022-09-16T01:30:45.188Z,0.00
2022-09-16T01:31:45.140Z,0.00
2022-09-16T01:32:45.099Z,0.00
2022-09-16T01:33:45.081Z,0.00
2022-09-16T01:34:45.070Z,0.00
2022-09-16T01:35:45.071Z,0.00
2022-09-16T01:36:45.053Z,0.00
2022-09-16T01:37:45.051Z,0.00
2022-09-16T01:38:45.039Z,0.00
2022-09-16T01:39:45.020Z,0.00
2022-09-16T01:40:45.041Z,0.00
2022-09-16T01:41:44.993Z,0.00
2022-09-16T01:42:44.992Z,0.00
2022-09-16T01:43:45.019Z,0.00
2022-09-16T01:44:44.965Z,0.00
2022-09-16T01:45:44.956Z,0.00
2022-09-16T01:46:44.964Z,0.00
2022-09-16T01:47:44.933Z,0.00
2022-09-16T01:48:44.923Z,0.00
2022-09-16T01:49:44.903Z,0.00
2022-09-16T01:50:44.912Z,0.00
2022-09-16T01:51:44.960Z,0.00
2022-09-16T01:52:44.876Z,0.00
2022-09-16T01:53:44.944Z,0.00
2022-09-16T01:54:44.864Z,0.00
2022-09-16T01:55:44.855Z,0.00
2022-09-16T01:56:44.836Z,0.00
2022-09-16T01:57:44.816Z,0.00
2022-09-16T01:58:44.818Z,0.00
2022-09-16T01:59:45.021Z,0.00
2022-09-16T02:00:44.808Z,0.00
2022-09-16T02:01:44.869Z,0.00
2022-09-16T02:02:44.825Z,0.00
2022-09-16T02:03:44.756Z,0.00
2022-09-16T02:04:44.760Z,0.00
2022-09-16T02:05:44.768Z,0.00
2022-09-16T02:06:44.727Z,0.00
2022-09-16T02:07:44.794Z,0.00
2022-09-16T02:08:44.718Z,0.00
2022-09-16T02:09:44.806Z,0.00
2022-09-16T02:10:44.719Z,0.00
2022-09-16T02:11:44.679Z,0.00
2022-09-16T02:12:44.669Z,0.00
2022-09-16T02:13:44.650Z,0.00
2022-09-16T02:14:44.647Z,0.00
2022-09-16T02:15:44.865Z,0.00
2022-09-16T02:16:44.628Z,0.00
2022-09-16T02:17:44.819Z,0.00
2022-09-16T02:18:44.600Z,0.00
2022-09-16T02:19:44.605Z,0.00
2022-09-16T02:20:44.590Z,0.00
2022-09-16T02:21:46.048Z,0.00
2022-09-16T02:22:44.563Z,0.00
2022-09-16T02:23:44.541Z,0.00
2022-09-16T02:24:44.531Z,0.00
2022-09-16T02:25:44.591Z,0.00
2022-09-16T02:26:44.522Z,0.00
2022-09-16T02:27:44.493Z,0.00
2022-09-16T02:28:44.522Z,0.00
2022-09-16T02:29:44.481Z,0.00
2022-09-16T02:30:44.488Z,0.00
2022-09-16T02:31:44.490Z,0.00
2022-09-16T02:32:44.451Z,0.00
2022-09-16T02:33:44.670Z,0.00
2022-09-16T02:34:44.432Z,0.00
2022-09-16T02:35:44.443Z,0.00
2022-09-16T02:36:44.405Z,0.00
2022-09-16T02:37:44.403Z,0.00
2022-09-16T02:38:44.405Z,0.00
2022-09-16T02:39:44.382Z,0.00
2022-09-16T02:40:44.362Z,0.00
2022-09-16T02:41:44.414Z,0.00
2022-09-16T02:42:44.333Z,0.00
2022-09-16T02:43:44.325Z,0.00
2022-09-16T02:44:44.322Z,0.00
2022-09-16T02:45:44.314Z,0.00
2022-09-16T02:46:44.382Z,0.00
2022-09-16T02:47:44.295Z,0.00
2022-09-16T02:48:44.287Z,0.00
2022-09-16T02:49:44.374Z,0.00
2022-09-16T02:50:44.254Z,0.00
2022-09-16T02:51:44.249Z,0.00
2022-09-16T02:52:44.236Z,0.00
2022-09-16T02:53:44.275Z,0.00
2022-09-16T02:54:44.206Z,0.00
2022-09-16T02:55:44.197Z,0.00
2022-09-16T02:56:44.197Z,0.00
2022-09-16T02:57:44.237Z,0.00
2022-09-16T02:58:44.173Z,0.00
2022-09-16T02:59:44.167Z,0.00
2022-09-16T03:00:44.144Z,0.00
2022-09-16T03:01:44.288Z,0.00
2022-09-16T03:02:44.215Z,0.00
2022-09-16T03:03:44.136Z,0.00
2022-09-16T03:04:44.108Z,0.00
2022-09-16T03:05:44.087Z,0.00
2022-09-16T03:06:44.089Z,0.00
2022-09-16T03:07:44.179Z,0.00
2022-09-16T03:08:44.091Z,0.00
2022-09-16T03:09:44.089Z,0.00
2022-09-16T03:10:44.040Z,0.00
2022-09-16T03:11:44.110Z,0.00
2022-09-16T03:12:44.021Z,0.00
2022-09-16T03:13:44.030Z,0.00
2022-09-16T03:14:44.001Z,0.00
2022-09-16T03:15:44.109Z,0.00
2022-09-16T03:16:46.050Z,0.00
2022-09-16T03:17:44.087Z,0.00
2022-09-16T03:18:43.943Z,0.00
2022-09-16T03:19:43.932Z,0.00
2022-09-16T03:20:43.931Z,0.00
2022-09-16T03:21:43.921Z,0.00
2022-09-16T03:22:43.915Z,0.00
2022-09-16T03:23:43.909Z,0.00
2022-09-16T03:24:43.885Z,0.00
2022-09-16T03:25:43.875Z,0.00
2022-09-16T03:26:43.882Z,0.00
2022-09-16T03:27:43.863Z,0.00
2022-09-16T03:28:43.843Z,0.00
2022-09-16T03:29:45.895Z,0.00
2022-09-16T03:30:43.848Z,0.00
2022-09-16T03:31:43.822Z,0.00
2022-09-16T03:32:43.794Z,0.00
2022-09-16T03:33:43.784Z,0.00
2022-09-16T03:34:43.774Z,0.00
2022-09-16T03:35:43.765Z,0.00
2022-09-16T03:36:43.745Z,0.00
2022-09-16T03:37:43.754Z,0.00
2022-09-16T03:38:43.830Z,0.00
2022-09-16T03:39:43.716Z,0.00
2022-09-16T03:40:43.708Z,0.00
2022-09-16T03:41:43.705Z,0.00
2022-09-16T03:42:43.695Z,0.00
2022-09-16T03:43:43.680Z,0.00
2022-09-16T03:44:43.678Z,0.00
2022-09-16T03:45:43.650Z,0.00
2022-09-16T03:46:43.689Z,0.00
2022-09-16T03:47:43.667Z,0.00
2022-09-16T03:48:43.616Z,0.00
2022-09-16T03:49:43.619Z,0.00
2022-09-16T03:50:43.608Z,0.00
2022-09-16T03:51:43.589Z,0.00
2022-09-16T03:52:43.590Z,0.00
2022-09-16T03:53:43.634Z,0.00
2022-09-16T03:54:43.569Z,0.00
2022-09-16T03:55:43.549Z,0.00
2022-09-16T03:56:43.543Z,0.00
2022-09-16T03:57:43.529Z,0.00
2022-09-16T03:58:43.531Z,0.00
2022-09-16T03:59:43.510Z,0.00
2022-09-16T04:00:43.489Z,0.00
2022-09-16T04:01:43.611Z,0.00
2022-09-16T04:02:43.497Z,0.00
2022-09-16T04:03:43.462Z,0.00
2022-09-16T04:04:43.482Z,0.00
2022-09-16T04:05:43.440Z,0.00
2022-09-16T04:06:43.422Z,0.00
2022-09-16T04:07:43.431Z,0.00
2022-09-16T04:08:43.412Z,0.00
2022-09-16T04:09:43.393Z,0.00
2022-09-16T04:10:43.393Z,0.00
2022-09-16T04:11:43.392Z,0.00
2022-09-16T04:12:43.382Z,0.00
2022-09-16T04:13:43.357Z,0.00
2022-09-16T04:14:43.343Z,0.00
2022-09-16T04:15:43.379Z,0.00
2022-09-16T04:16:45.383Z,0.00
2022-09-16T04:17:43.334Z,0.00
2022-09-16T04:18:43.295Z,0.00
2022-09-16T04:19:43.294Z,0.00
2022-09-16T04:20:43.273Z,0.00
2022-09-16T04:21:43.275Z,0.00
2022-09-16T04:22:43.285Z,0.00
2022-09-16T04:23:43.245Z,0.00
2022-09-16T04:24:43.235Z,0.00
2022-09-16T04:25:43.225Z,0.00
2022-09-16T04:26:43.206Z,0.00
2022-09-16T04:27:43.205Z,0.00
2022-09-16T04:28:43.187Z,0.00
2022-09-16T04:29:43.186Z,0.00
2022-09-16T04:30:43.211Z,0.00
2022-09-16T04:31:43.157Z,0.00
2022-09-16T04:32:43.156Z,0.00
2022-09-16T04:33:43.128Z,0.00
2022-09-16T04:34:43.118Z,0.00
2022-09-16T04:35:43.117Z,0.00
2022-09-16T04:36:43.148Z,4.00
2022-09-16T04:37:43.097Z,4.00
2022-09-16T04:38:43.079Z,0.00
2022-09-16T04:39:43.068Z,4.00
2022-09-16T04:40:43.058Z,4.00
2022-09-16T04:41:43.119Z,4.00
2022-09-16T04:42:43.038Z,8.00
2022-09-16T04:43:43.028Z,8.00
2022-09-16T04:44:43.010Z,8.00
2022-09-16T04:45:43.001Z,12.00
2022-09-16T04:46:43.133Z,16.00
2022-09-16T04:47:43.242Z,16.00
2022-09-16T04:48:42.980Z,20.00
2022-09-16T04:49:42.960Z,28.00
2022-09-16T04:50:42.956Z,32.00
2022-09-16T04:51:42.965Z,36.00
2022-09-16T04:52:42.937Z,44.00
2022-09-16T04:53:42.922Z,52.00
2022-09-16T04:54:42.904Z,60.00
2022-09-16T04:55:43.112Z,76.00
2022-09-16T04:56:42.902Z,88.00
2022-09-16T04:57:42.875Z,100.00
2022-09-16T04:58:42.883Z,116.00
2022-09-16T04:59:42.863Z,136.00
2022-09-16T05:00:42.883Z,156.00
2022-09-16T05:01:42.936Z,180.00
2022-09-16T05:02:42.823Z,208.00
2022-09-16T05:03:42.882Z,240.00
2022-09-16T05:04:42.876Z,272.00
2022-09-16T05:05:42.813Z,304.00
2022-09-16T05:06:42.825Z,336.00
2022-09-16T05:07:42.836Z,376.00
2022-09-16T05:08:42.794Z,412.00
2022-09-16T05:09:42.845Z,444.00
2022-09-16T05:10:42.795Z,476.00
2022-09-16T05:11:42.846Z,508.00
2022-09-16T05:12:44.717Z,544.00
2022-09-16T05:13:43.704Z,588.00
2022-09-16T05:14:42.695Z,632.00
2022-09-16T05:15:44.019Z,676.00
2022-09-16T05:16:42.685Z,720.00
2022-09-16T05:17:51.552Z,760.00
2022-09-16T05:18:43.645Z,812.00
2022-09-16T05:19:42.645Z,860.00
2022-09-16T05:20:42.626Z,908.00
2022-09-16T05:21:42.631Z,980.00
2022-09-16T05:22:42.617Z,1080.00
2022-09-16T05:23:46.732Z,1212.00
2022-09-16T05:24:42.585Z,1340.00
2022-09-16T05:25:42.754Z,1440.00
2022-09-16T05:26:42.575Z,1528.00
2022-09-16T05:27:42.548Z,1600.00
2022-09-16T05:28:42.537Z,1648.00
2022-09-16T05:29:42.527Z,1684.00
2022-09-16T05:30:42.554Z,1688.00
2022-09-16T05:31:42.532Z,1672.00
2022-09-16T05:32:42.517Z,1644.00
2022-09-16T05:33:42.489Z,1612.00
2022-09-16T05:34:42.509Z,1584.00
2022-09-16T05:35:42.464Z,1548.00
2022-09-16T05:36:42.469Z,1436.00
2022-09-16T05:37:42.443Z,1296.00
2022-09-16T05:38:54.311Z,1136.00
2022-09-16T05:39:43.447Z,992.00
2022-09-16T05:40:42.411Z,888.00
2022-09-16T05:41:42.515Z,852.00
2022-09-16T05:42:42.391Z,864.00
2022-09-16T05:43:42.381Z,892.00
2022-09-16T05:44:42.372Z,932.00
2022-09-16T05:45:42.406Z,984.00
2022-09-16T05:46:42.362Z,1048.00
2022-09-16T05:47:42.480Z,1124.00
2022-09-16T05:48:42.333Z,1192.00
2022-09-16T05:49:42.325Z,1252.00
2022-09-16T05:50:42.303Z,1316.00
2022-09-16T05:51:42.300Z,1404.00
2022-09-16T05:52:42.284Z,1488.00
2022-09-16T05:53:42.273Z,1572.00
2022-09-16T05:54:42.252Z,1680.00
2022-09-16T05:55:42.253Z,1832.00
2022-09-16T05:56:42.273Z,2016.00
2022-09-16T05:57:42.234Z,2152.00
2022-09-16T05:58:42.225Z,2196.00
2022-09-16T05:59:42.205Z,2172.00
2022-09-16T06:00:42.194Z,2104.00
2022-09-16T06:01:42.252Z,2048.00
2022-09-16T06:02:42.228Z,2032.00
2022-09-16T06:03:42.165Z,2052.00
2022-09-16T06:04:42.146Z,2132.00
2022-09-16T06:05:45.630Z,2232.00
2022-09-16T06:06:42.136Z,2324.00
2022-09-16T06:07:42.118Z,2468.00
2022-09-16T06:08:42.106Z,2652.00
2022-09-16T06:09:42.089Z,2832.00
2022-09-16T06:10:42.098Z,2940.00
2022-09-16T06:11:42.078Z,3012.00
2022-09-16T06:12:42.066Z,3092.00
2022-09-16T06:13:42.067Z,3256.00
2022-09-16T06:14:42.046Z,3476.00
2022-09-16T06:15:42.097Z,3740.00
2022-09-16T06:16:42.037Z,4020.00
2022-09-16T06:17:42.028Z,4300.00
2022-09-16T06:18:41.998Z,4532.00
2022-09-16T06:19:41.997Z,4716.00
2022-09-16T06:20:41.980Z,4812.00
2022-09-16T06:21:42.013Z,4776.00
2022-09-16T06:22:41.958Z,4676.00
2022-09-16T06:23:42.023Z,4608.00
2022-09-16T06:24:41.930Z,4652.00
2022-09-16T06:25:41.920Z,4928.00
2022-09-16T06:26:41.921Z,5560.00
2022-09-16T06:27:41.891Z,6496.00
2022-09-16T06:28:41.884Z,7464.00
2022-09-16T06:29:41.872Z,8144.00
2022-09-16T06:30:41.950Z,8428.00
2022-09-16T06:31:41.871Z,8432.00
2022-09-16T06:32:41.842Z,8448.00
2022-09-16T06:33:41.850Z,8596.00
2022-09-16T06:34:41.822Z,8988.00
2022-09-16T06:35:41.820Z,9728.00
2022-09-16T06:36:45.049Z,10856.00
2022-09-16T06:37:41.803Z,12200.00
2022-09-16T06:38:41.786Z,13316.00
2022-09-16T06:39:41.767Z,14092.00
2022-09-16T06:40:41.773Z,14884.00
2022-09-16T06:41:41.775Z,15840.00
2022-09-16T06:42:41.726Z,16960.00
2022-09-16T06:43:41.736Z,17856.00
2022-09-16T06:44:41.744Z,17696.00
2022-09-16T06:45:41.763Z,16928.00
2022-09-16T06:46:41.717Z,15872.00
2022-09-16T06:47:41.691Z,16032.00
2022-09-16T06:48:41.668Z,21760.00
2022-09-16T06:49:41.665Z,11968.00
2022-09-16T06:50:41.661Z,12012.00
2022-09-16T06:51:41.688Z,8820.00
2022-09-16T06:52:41.666Z,7988.00
2022-09-16T06:53:41.627Z,7340.00
2022-09-16T06:54:41.608Z,7760.00
2022-09-16T06:55:41.608Z,8300.00
2022-09-16T06:56:41.776Z,8820.00
2022-09-16T06:57:41.609Z,9284.00
2022-09-16T06:58:41.557Z,9568.00
2022-09-16T06:59:41.568Z,9644.00
2022-09-16T07:00:41.559Z,10028.00
2022-09-16T07:01:41.606Z,10848.00
2022-09-16T07:02:41.616Z,11804.00
2022-09-16T07:03:41.539Z,12096.00
2022-09-16T07:04:41.540Z,12068.00
2022-09-16T07:05:41.501Z,12068.00
2022-09-16T07:07:42.479Z,11660.00
2022-09-16T07:08:41.485Z,11880.00
2022-09-16T07:09:41.442Z,11492.00
2022-09-16T07:10:41.431Z,11536.00
2022-09-16T07:11:41.446Z,11868.00
2022-09-16T07:12:41.403Z,12244.00
2022-09-16T07:13:41.416Z,12496.00
2022-09-16T07:14:41.417Z,35520.00
2022-09-16T07:16:02.421Z,16344.00
2022-09-16T07:16:42.430Z,27104.00
2022-09-16T07:17:41.368Z,26944.00
2022-09-16T07:18:41.346Z,26112.00
2022-09-16T07:19:41.333Z,21280.00
2022-09-16T07:20:41.335Z,22560.00
2022-09-16T07:21:41.389Z,20768.00
2022-09-16T07:22:41.307Z,23744.00
2022-09-16T07:23:41.305Z,51520.00
2022-09-16T07:24:41.275Z,21504.00
2022-09-16T07:25:41.266Z,55616.00
2022-09-16T07:26:41.295Z,66624.00
2022-09-16T07:27:41.246Z,48064.00
2022-09-16T07:28:41.236Z,22560.00
2022-09-16T07:29:41.227Z,21344.00
2022-09-16T07:30:41.394Z,21504.00
2022-09-16T07:31:41.221Z,23264.00
2022-09-16T07:32:41.205Z,37504.00
2022-09-16T07:33:41.188Z,52768.00
2022-09-16T07:34:41.170Z,32544.00
2022-09-16T07:35:41.160Z,60480.00
2022-09-16T07:36:41.150Z,19872.00
2022-09-16T07:37:42.779Z,18688.00
2022-09-16T07:38:41.131Z,19424.00
2022-09-16T07:39:41.110Z,20512.00
2022-09-16T07:40:41.101Z,23040.00
2022-09-16T07:41:41.110Z,28960.00
2022-09-16T07:42:41.080Z,36864.00
2022-09-16T07:43:41.414Z,39584.00
2022-09-16T07:44:41.214Z,32448.00
2022-09-16T07:45:41.114Z,30080.00
2022-09-16T07:46:41.055Z,32320.00
2022-09-16T07:47:41.025Z,30880.00
2022-09-16T07:48:41.019Z,26176.00
2022-09-16T07:49:41.004Z,24352.00
2022-09-16T07:50:40.985Z,23680.00
2022-09-16T07:51:40.985Z,28480.00
2022-09-16T07:52:41.008Z,23456.00
2022-09-16T07:53:40.977Z,22848.00
2022-09-16T07:54:40.953Z,22944.00
2022-09-16T07:55:40.946Z,24032.00
2022-09-16T07:56:40.936Z,28288.00
2022-09-16T07:57:40.915Z,88640.00
2022-09-16T07:58:40.896Z,89632.00
2022-09-16T07:59:40.897Z,87328.00
2022-09-16T08:00:40.878Z,88992.00
2022-09-16T08:01:43.628Z,88832.00
2022-09-16T08:02:40.936Z,88416.00
2022-09-16T08:03:40.880Z,72384.00
2022-09-16T08:04:40.840Z,56960.00
2022-09-16T08:05:40.861Z,86272.00
2022-09-16T08:06:40.836Z,85056.00
2022-09-16T08:07:40.886Z,87328.00
2022-09-16T08:08:40.790Z,89536.00
2022-09-16T08:09:43.248Z,93568.00
2022-09-16T08:10:41.932Z,94432.00
2022-09-16T08:11:40.861Z,95040.00
2022-09-16T08:12:40.743Z,80480.00
2022-09-16T08:13:40.753Z,71552.00
2022-09-16T08:14:40.734Z,93536.00
2022-09-16T08:15:40.728Z,76928.00
2022-09-16T08:16:40.769Z,71968.00
2022-09-16T08:17:40.716Z,55520.00
2022-09-16T08:18:40.686Z,45728.00
2022-09-16T08:19:40.686Z,38688.00
2022-09-16T08:20:40.658Z,58656.00
2022-09-16T08:21:40.660Z,66144.00
2022-09-16T08:22:40.656Z,54880.00
2022-09-16T08:23:40.651Z,44640.00
2022-09-16T08:24:40.626Z,80864.00
2022-09-16T08:25:40.618Z,55552.00
2022-09-16T08:26:40.609Z,53696.00
2022-09-16T08:27:40.599Z,76736.00
2022-09-16T08:28:57.621Z,49760.00
2022-09-16T08:29:41.572Z,47168.00
2022-09-16T08:30:40.584Z,40352.00
2022-09-16T08:31:40.581Z,62752.00
2022-09-16T08:32:40.562Z,35104.00
2022-09-16T08:33:40.533Z,31392.00
2022-09-16T08:34:40.521Z,42688.00
2022-09-16T08:35:40.513Z,42400.00
2022-09-16T08:36:40.506Z,46400.00
2022-09-16T08:37:40.504Z,49120.00
2022-09-16T08:38:40.475Z,31424.00
2022-09-16T08:39:40.455Z,38720.00
2022-09-16T08:40:40.456Z,39264.00
2022-09-16T08:41:40.447Z,33376.00
2022-09-16T08:42:40.449Z,34688.00
2022-09-16T08:43:40.438Z,38848.00
2022-09-16T08:44:40.417Z,45056.00
2022-09-16T08:45:41.488Z,48544.00
2022-09-16T08:46:40.396Z,59136.00
2022-09-16T08:47:40.391Z,46432.00
2022-09-16T08:48:40.378Z,49856.00
2022-09-16T08:49:43.924Z,60736.00
2022-09-16T08:50:41.573Z,42624.00
2022-09-16T08:51:40.330Z,44384.00
2022-09-16T08:52:40.339Z,36192.00
2022-09-16T08:53:40.341Z,41984.00
2022-09-16T08:54:40.312Z,36832.00
2022-09-16T08:55:40.294Z,36064.00
2022-09-16T08:56:44.206Z,32864.00
2022-09-16T08:57:40.273Z,33088.00
2022-09-16T08:58:40.263Z,34016.00
2022-09-16T08:59:40.270Z,36768.00
2022-09-16T09:00:40.423Z,54784.00
2022-09-16T09:01:40.545Z,47296.00
2022-09-16T09:03:40.214Z,42816.00
2022-09-16T09:04:40.221Z,56608.00
2022-09-16T09:05:40.192Z,56992.00
2022-09-16T09:06:40.186Z,107232.00
2022-09-16T09:07:40.188Z,107232.00
2022-09-16T09:08:40.157Z,127104.00
2022-09-16T09:09:40.147Z,122400.00
2022-09-16T09:10:40.140Z,111264.00
2022-09-16T09:11:40.122Z,106752.00
2022-09-16T09:12:41.621Z,134272.00
2022-09-16T09:13:40.112Z,126912.00
2022-09-16T09:14:40.091Z,91328.00
2022-09-16T09:15:40.097Z,73984.00
2022-09-16T09:16:40.137Z,90624.00
2022-09-16T09:17:48.138Z,77984.00
2022-09-16T09:18:41.041Z,86784.00
2022-09-16T09:19:40.051Z,127840.00
2022-09-16T09:20:40.025Z,76736.00
2022-09-16T09:21:40.032Z,153888.00
2022-09-16T09:22:40.024Z,87296.00
2022-09-16T09:23:40.006Z,84352.00
2022-09-16T09:24:40.014Z,54336.00
2022-09-16T09:25:39.975Z,58272.00
2022-09-16T09:26:39.967Z,62176.00
2022-09-16T09:27:39.968Z,44256.00
2022-09-16T09:28:39.948Z,48480.00
2022-09-16T09:29:39.947Z,43072.00
2022-09-16T09:30:39.947Z,44096.00
2022-09-16T09:31:39.994Z,39200.00
2022-09-16T09:32:48.959Z,41536.00
2022-09-16T09:33:46.585Z,41376.00
2022-09-16T09:34:41.828Z,56096.00
2022-09-16T09:35:39.879Z,46592.00
2022-09-16T09:36:39.850Z,57792.00
2022-09-16T09:37:39.870Z,53504.00
2022-09-16T09:38:39.843Z,93664.00
2022-09-16T09:39:39.831Z,79520.00
2022-09-16T09:40:39.821Z,74624.00
2022-09-16T09:41:39.823Z,95360.00
2022-09-16T09:42:39.802Z,112832.00
2022-09-16T09:44:39.774Z,105120.00
2022-09-16T09:45:39.805Z,109568.00
2022-09-16T09:46:39.758Z,106432.00
2022-09-16T09:47:39.757Z,116928.00
2022-09-16T09:48:39.745Z,119488.00
2022-09-16T09:49:39.726Z,125376.00
2022-09-16T09:50:39.734Z,127936.00
2022-09-16T09:51:39.712Z,134432.00
2022-09-16T09:52:39.717Z,139296.00
2022-09-16T09:53:39.699Z,120032.00
2022-09-16T09:54:39.661Z,147616.00
2022-09-16T09:55:39.660Z,86976.00
2022-09-16T09:56:39.650Z,91136.00
2022-09-16T09:57:39.649Z,136832.00
2022-09-16T09:58:39.633Z,79712.00
2022-09-16T09:59:39.621Z,61312.00
2022-09-16T10:00:39.653Z,50368.00
2022-09-16T10:01:39.669Z,55104.00
2022-09-16T10:02:39.602Z,47264.00
2022-09-16T10:03:39.584Z,40032.00
2022-09-16T10:04:39.564Z,30368.00
2022-09-16T10:05:39.568Z,26752.00
2022-09-16T10:06:39.544Z,22304.00
2022-09-16T10:07:39.555Z,18816.00
2022-09-16T10:08:39.525Z,16704.00
2022-09-16T10:09:39.531Z,15956.00
2022-09-16T10:10:39.506Z,16832.00
2022-09-16T10:11:39.498Z,18016.00
2022-09-16T10:12:39.507Z,19264.00
2022-09-16T10:13:39.489Z,21280.00
2022-09-16T10:14:39.459Z,24224.00
2022-09-16T10:15:39.458Z,28416.00
2022-09-16T10:16:39.538Z,32960.00
2022-09-16T10:17:39.460Z,113984.00
2022-09-16T10:18:39.409Z,52416.00
2022-09-16T10:19:39.410Z,39808.00
2022-09-16T10:20:39.399Z,44032.00
2022-09-16T10:21:39.381Z,36096.00
2022-09-16T10:22:39.381Z,53248.00
2022-09-16T10:23:39.589Z,39840.00
2022-09-16T10:24:39.351Z,41856.00
2022-09-16T10:25:39.358Z,147424.00
2022-09-16T10:26:39.332Z,38816.00
2022-09-16T10:27:39.324Z,56608.00
2022-09-16T10:28:39.325Z,120064.00
2022-09-16T10:29:39.312Z,135360.00
2022-09-16T10:30:39.284Z,136224.00
2022-09-16T10:31:39.346Z,124192.00
2022-09-16T10:33:09.119Z,133632.00
2022-09-16T10:34:09.129Z,132416.00
2022-09-16T10:35:09.082Z,130624.00
2022-09-16T10:36:09.082Z,25248.00
2022-09-16T10:37:09.173Z,16300.00
2022-09-16T10:38:09.066Z,76288.00
2022-09-16T10:39:09.042Z,74304.00
2022-09-16T10:40:09.067Z,111424.00
2022-09-16T10:41:09.015Z,125440.00
2022-09-16T10:42:09.085Z,122048.00
2022-09-16T10:43:09.025Z,133888.00
2022-09-16T10:44:09.297Z,116064.00
2022-09-16T10:45:09.038Z,140576.00
2022-09-16T10:46:09.072Z,124064.00
2022-09-16T10:47:08.958Z,141248.00
2022-09-16T10:48:09.025Z,142432.00
2022-09-16T10:49:08.938Z,41888.00
2022-09-16T10:50:09.059Z,146944.00
2022-09-16T10:51:08.917Z,30976.00
2022-09-16T10:52:08.920Z,26816.00
2022-09-16T10:53:09.098Z,25952.00
2022-09-16T10:54:08.891Z,31904.00
2022-09-16T10:55:08.893Z,39392.00
2022-09-16T10:56:08.933Z,35680.00
2022-09-16T10:57:08.853Z,37280.00
2022-09-16T10:58:09.044Z,155008.00
2022-09-16T10:59:08.843Z,115936.00
2022-09-16T11:00:08.901Z,101056.00
2022-09-16T11:01:09.296Z,79872.00
2022-09-16T11:02:09.078Z,94880.00
2022-09-16T11:03:08.865Z,117088.00
2022-09-16T11:04:08.858Z,91808.00
2022-09-16T11:05:08.776Z,56384.00
2022-09-16T11:06:08.768Z,54176.00
2022-09-16T11:07:08.749Z,67168.00
2022-09-16T11:08:08.758Z,144896.00
2022-09-16T11:09:08.822Z,133184.00
2022-09-16T11:10:09.449Z,145024.00
2022-09-16T11:11:11.804Z,123424.00
2022-09-16T11:12:10.492Z,19520.00
2022-09-16T11:13:08.689Z,18176.00
2022-09-16T11:14:08.911Z,126464.00
2022-09-16T11:15:08.663Z,25536.00
2022-09-16T11:16:08.752Z,22592.00
2022-09-16T11:17:08.733Z,132096.00
2022-09-16T11:18:08.633Z,133568.00
2022-09-16T11:19:08.645Z,136032.00
2022-09-16T11:20:08.656Z,133568.00
2022-09-16T11:21:08.615Z,134496.00
2022-09-16T11:22:08.675Z,22592.00
2022-09-16T11:23:08.585Z,22496.00
2022-09-16T11:24:08.625Z,23776.00
2022-09-16T11:25:08.648Z,32832.00
2022-09-16T11:26:08.568Z,31776.00
2022-09-16T11:27:08.551Z,39360.00
2022-09-16T11:28:08.567Z,39968.00
2022-09-16T11:29:08.548Z,107296.00
2022-09-16T11:30:08.559Z,83616.00
2022-09-16T11:31:08.547Z,31968.00
2022-09-16T11:32:08.612Z,114848.00
2022-09-16T11:33:08.773Z,113440.00
2022-09-16T11:34:08.510Z,98432.00
2022-09-16T11:35:08.462Z,123040.00
2022-09-16T11:36:09.352Z,112928.00
2022-09-16T11:37:08.440Z,119808.00
2022-09-16T11:38:08.425Z,111488.00
2022-09-16T11:39:08.424Z,24064.00
2022-09-16T11:40:08.474Z,25184.00
2022-09-16T11:41:08.547Z,19392.00
2022-09-16T11:42:08.384Z,128384.00
2022-09-16T11:43:08.646Z,128064.00
2022-09-16T11:44:08.556Z,17028.00
2022-09-16T11:45:08.364Z,129440.00
2022-09-16T11:46:08.492Z,23808.00
2022-09-16T11:47:08.404Z,47040.00
2022-09-16T11:48:08.323Z,20896.00
2022-09-16T11:49:08.480Z,25568.00
2022-09-16T11:50:08.337Z,126368.00
2022-09-16T11:51:08.413Z,123264.00
2022-09-16T11:52:08.288Z,118976.00
2022-09-16T11:53:09.261Z,112544.00
2022-09-16T11:54:08.348Z,112256.00
2022-09-16T11:55:08.251Z,109216.00
2022-09-16T11:56:08.295Z,114912.00
2022-09-16T11:57:09.809Z,111584.00
2022-09-16T11:58:08.369Z,117824.00
2022-09-16T11:59:08.423Z,117696.00
2022-09-16T12:00:08.213Z,120576.00
2022-09-16T12:01:08.221Z,119040.00
2022-09-16T12:02:08.337Z,123936.00
2022-09-16T12:03:08.211Z,117504.00
2022-09-16T12:04:08.275Z,120448.00
2022-09-16T12:05:08.189Z,77440.00
2022-09-16T12:06:08.185Z,130144.00
2022-09-16T12:07:08.147Z,35488.00
2022-09-16T12:08:08.158Z,136960.00
2022-09-16T12:09:10.538Z,71360.00
2022-09-16T12:10:08.138Z,41408.00
2022-09-16T12:11:08.084Z,34464.00
2022-09-16T12:12:08.072Z,32384.00
2022-09-16T12:13:08.291Z,29888.00
2022-09-16T12:14:08.238Z,28512.00
2022-09-16T12:15:08.040Z,28128.00
2022-09-16T12:16:08.052Z,27872.00
2022-09-16T12:17:08.023Z,24448.00
2022-09-16T12:18:08.165Z,22048.00
2022-09-16T12:19:08.004Z,18912.00
2022-09-16T12:20:08.089Z,15616.00
2022-09-16T12:21:08.005Z,12616.00
2022-09-16T12:22:08.035Z,10316.00
2022-09-16T12:23:07.964Z,8768.00
2022-09-16T12:24:07.993Z,7716.00